createdAt,value
2023-03-15T00:00:54.266Z,0.00
2023-03-15T00:01:54.264Z,0.00
2023-03-15T00:02:54.236Z,0.00
2023-03-15T00:03:54.266Z,0.00
2023-03-15T00:04:54.244Z,0.00
2023-03-15T00:05:54.205Z,0.00
2023-03-15T00:06:54.212Z,0.00
2023-03-15T00:07:54.185Z,0.00
2023-03-15T00:08:54.168Z,0.00
2023-03-15T00:09:54.214Z,0.00
2023-03-15T00:10:54.152Z,0.00
2023-03-15T00:11:54.128Z,0.00
2023-03-15T00:12:55.068Z,0.00
2023-03-15T00:13:54.104Z,0.00
2023-03-15T00:14:54.098Z,0.00
2023-03-15T00:15:54.228Z,0.00
2023-03-15T00:16:54.070Z,0.00
2023-03-15T00:17:54.051Z,0.00
2023-03-15T00:18:54.041Z,0.00
2023-03-15T00:19:54.975Z,0.00
2023-03-15T00:20:54.026Z,0.00
2023-03-15T00:21:54.031Z,0.00
2023-03-15T00:22:53.998Z,0.00
2023-03-15T00:23:53.972Z,0.00
2023-03-15T00:24:53.966Z,0.00
2023-03-15T00:25:53.948Z,0.00
2023-03-15T00:26:53.933Z,0.00
2023-03-15T00:27:53.956Z,0.00
2023-03-15T00:28:53.905Z,0.00
2023-03-15T00:29:54.854Z,0.00
2023-03-15T00:30:53.946Z,0.00
2023-03-15T00:31:53.870Z,0.00
2023-03-15T00:32:53.947Z,0.00
2023-03-15T00:33:53.903Z,0.00
2023-03-15T00:34:53.838Z,0.00
2023-03-15T00:35:53.966Z,0.00
2023-03-15T00:36:53.797Z,0.00
2023-03-15T00:37:53.790Z,0.00
2023-03-15T00:38:53.773Z,0.00
2023-03-15T00:39:53.780Z,0.00
2023-03-15T00:40:53.744Z,0.00
2023-03-15T00:41:53.750Z,0.00
2023-03-15T00:42:53.722Z,0.00
2023-03-15T00:43:53.725Z,0.00
2023-03-15T00:44:53.699Z,0.00
2023-03-15T00:45:53.737Z,0.00
2023-03-15T00:46:53.702Z,0.00
2023-03-15T00:47:54.623Z,0.00
2023-03-15T00:48:53.645Z,0.00
2023-03-15T00:49:53.635Z,0.00
2023-03-15T00:50:53.616Z,0.00
2023-03-15T00:51:54.689Z,0.00
2023-03-15T00:52:53.608Z,0.00
2023-03-15T00:53:53.605Z,0.00
2023-03-15T00:54:53.574Z,0.00
2023-03-15T00:55:53.559Z,0.00
2023-03-15T00:56:53.538Z,0.00
2023-03-15T00:57:53.575Z,0.00
2023-03-15T00:58:53.527Z,0.00
2023-03-15T00:59:53.509Z,0.00
2023-03-15T01:00:53.489Z,0.00
2023-03-15T01:01:54.505Z,0.00
2023-03-15T01:02:53.534Z,0.00
2023-03-15T01:03:53.585Z,0.00
2023-03-15T01:04:53.433Z,0.00
2023-03-15T01:05:53.424Z,0.00
2023-03-15T01:06:53.413Z,0.00
2023-03-15T01:07:53.420Z,0.00
2023-03-15T01:08:53.382Z,0.00
2023-03-15T01:09:53.412Z,0.00
2023-03-15T01:10:53.364Z,0.00
2023-03-15T01:11:53.354Z,0.00
2023-03-15T01:12:53.337Z,0.00
2023-03-15T01:13:54.277Z,0.00
2023-03-15T01:14:53.316Z,0.00
2023-03-15T01:15:53.581Z,0.00
2023-03-15T01:16:53.295Z,0.00
2023-03-15T01:17:53.276Z,0.00
2023-03-15T01:18:53.280Z,0.00
2023-03-15T01:19:53.258Z,0.00
2023-03-15T01:20:53.250Z,0.00
2023-03-15T01:21:53.351Z,0.00
2023-03-15T01:22:53.210Z,0.00
2023-03-15T01:23:54.197Z,0.00
2023-03-15T01:24:53.200Z,0.00
2023-03-15T01:25:53.170Z,0.00
2023-03-15T01:26:53.156Z,0.00
2023-03-15T01:27:53.274Z,0.00
2023-03-15T01:28:53.132Z,0.00
2023-03-15T01:29:53.122Z,0.00
2023-03-15T01:30:53.103Z,0.00
2023-03-15T01:31:54.100Z,0.00
2023-03-15T01:32:53.092Z,0.00
2023-03-15T01:33:53.114Z,0.00
2023-03-15T01:34:53.053Z,0.00
2023-03-15T01:35:53.109Z,0.00
2023-03-15T01:36:53.024Z,0.00
2023-03-15T01:37:53.015Z,0.00
2023-03-15T01:38:52.995Z,0.00
2023-03-15T01:39:53.042Z,0.00
2023-03-15T01:40:52.978Z,0.00
2023-03-15T01:41:52.958Z,0.00
2023-03-15T01:42:52.966Z,0.00
2023-03-15T01:43:52.949Z,0.00
2023-03-15T01:44:52.946Z,0.00
2023-03-15T01:45:53.032Z,0.00
2023-03-15T01:46:53.093Z,0.00
2023-03-15T01:47:52.887Z,0.00
2023-03-15T01:48:52.937Z,0.00
2023-03-15T01:49:52.868Z,0.00
2023-03-15T01:50:52.841Z,0.00
2023-03-15T01:51:52.906Z,0.00
2023-03-15T01:52:52.811Z,0.00
2023-03-15T01:53:52.815Z,0.00
2023-03-15T01:54:52.791Z,0.00
2023-03-15T01:55:52.782Z,0.00
2023-03-15T01:56:52.763Z,0.00
2023-03-15T01:57:52.874Z,0.00
2023-03-15T01:58:52.741Z,0.00
2023-03-15T01:59:52.733Z,0.00
2023-03-15T02:00:52.754Z,0.00
2023-03-15T02:01:53.750Z,0.00
2023-03-15T02:02:53.643Z,0.00
2023-03-15T02:03:52.717Z,0.00
2023-03-15T02:04:52.655Z,0.00
2023-03-15T02:05:52.647Z,0.00
2023-03-15T02:06:52.636Z,0.00
2023-03-15T02:07:52.628Z,0.00
2023-03-15T02:08:52.610Z,0.00
2023-03-15T02:09:52.655Z,0.00
2023-03-15T02:10:52.586Z,0.00
2023-03-15T02:11:52.588Z,0.00
2023-03-15T02:12:52.552Z,0.00
2023-03-15T02:13:53.508Z,0.00
2023-03-15T02:14:52.531Z,0.00
2023-03-15T02:15:52.641Z,0.00
2023-03-15T02:16:52.509Z,0.00
2023-03-15T02:17:52.494Z,0.00
2023-03-15T02:18:52.479Z,0.00
2023-03-15T02:19:52.473Z,0.00
2023-03-15T02:20:52.460Z,0.00
2023-03-15T02:21:53.415Z,0.00
2023-03-15T02:22:52.425Z,0.00
2023-03-15T02:23:52.419Z,0.00
2023-03-15T02:24:52.405Z,0.00
2023-03-15T02:25:52.384Z,0.00
2023-03-15T02:26:52.407Z,0.00
2023-03-15T02:27:52.537Z,0.00
2023-03-15T02:28:52.354Z,0.00
2023-03-15T02:29:52.343Z,0.00
2023-03-15T02:30:52.328Z,0.00
2023-03-15T02:31:52.332Z,0.00
2023-03-15T02:32:52.327Z,0.00
2023-03-15T02:33:52.309Z,0.00
2023-03-15T02:34:52.281Z,0.00
2023-03-15T02:35:52.299Z,0.00
2023-03-15T02:36:52.252Z,0.00
2023-03-15T02:37:52.239Z,0.00
2023-03-15T02:38:52.226Z,0.00
2023-03-15T02:39:52.254Z,0.00
2023-03-15T02:40:53.068Z,0.00
2023-03-15T02:41:52.189Z,0.00
2023-03-15T02:42:52.181Z,0.00
2023-03-15T02:43:52.162Z,0.00
2023-03-15T02:44:52.145Z,0.00
2023-03-15T02:45:52.266Z,0.00
2023-03-15T02:46:52.125Z,0.00
2023-03-15T02:47:53.056Z,0.00
2023-03-15T02:48:52.087Z,0.00
2023-03-15T02:49:52.085Z,0.00
2023-03-15T02:50:52.069Z,0.00
2023-03-15T02:51:52.145Z,0.00
2023-03-15T02:52:52.040Z,0.00
2023-03-15T02:53:52.056Z,0.00
2023-03-15T02:54:52.971Z,0.00
2023-03-15T02:55:52.014Z,0.00
2023-03-15T02:56:52.037Z,0.00
2023-03-15T02:57:52.118Z,0.00
2023-03-15T02:58:51.977Z,0.00
2023-03-15T02:59:51.959Z,0.00
2023-03-15T03:00:51.970Z,0.00
2023-03-15T03:01:52.885Z,0.00
2023-03-15T03:02:51.926Z,0.00
2023-03-15T03:03:51.924Z,0.00
2023-03-15T03:04:51.888Z,0.00
2023-03-15T03:05:51.890Z,0.00
2023-03-15T03:06:51.872Z,0.00
2023-03-15T03:07:51.859Z,0.00
2023-03-15T03:08:51.836Z,0.00
2023-03-15T03:09:51.930Z,0.00
2023-03-15T03:10:51.819Z,0.00
2023-03-15T03:11:51.802Z,0.00
2023-03-15T03:12:51.792Z,0.00
2023-03-15T03:13:51.787Z,0.00
2023-03-15T03:14:51.775Z,0.00
2023-03-15T03:15:51.782Z,0.00
2023-03-15T03:16:51.848Z,0.00
2023-03-15T03:17:51.730Z,0.00
2023-03-15T03:18:51.704Z,0.00
2023-03-15T03:19:51.701Z,0.00
2023-03-15T03:20:51.682Z,0.00
2023-03-15T03:21:52.012Z,0.00
2023-03-15T03:22:51.664Z,0.00
2023-03-15T03:23:51.639Z,0.00
2023-03-15T03:24:51.624Z,0.00
2023-03-15T03:25:51.612Z,0.00
2023-03-15T03:26:51.607Z,0.00
2023-03-15T03:27:51.611Z,0.00
2023-03-15T03:28:51.581Z,0.00
2023-03-15T03:29:51.561Z,0.00
2023-03-15T03:30:51.574Z,0.00
2023-03-15T03:31:51.532Z,0.00
2023-03-15T03:32:51.544Z,0.00
2023-03-15T03:33:51.558Z,0.00
2023-03-15T03:34:51.505Z,0.00
2023-03-15T03:35:51.508Z,0.00
2023-03-15T03:36:51.466Z,0.00
2023-03-15T03:37:51.462Z,0.00
2023-03-15T03:38:51.441Z,0.00
2023-03-15T03:39:51.468Z,0.00
2023-03-15T03:40:51.424Z,0.00
2023-03-15T03:41:51.404Z,0.00
2023-03-15T03:42:51.395Z,0.00
2023-03-15T03:43:51.404Z,0.00
2023-03-15T03:44:51.369Z,0.00
2023-03-15T03:45:51.524Z,0.00
2023-03-15T03:46:52.297Z,0.00
2023-03-15T03:47:51.327Z,0.00
2023-03-15T03:48:51.314Z,0.00
2023-03-15T03:49:51.309Z,0.00
2023-03-15T03:50:51.291Z,0.00
2023-03-15T03:51:51.353Z,0.00
2023-03-15T03:52:51.267Z,0.00
2023-03-15T03:53:51.256Z,0.00
2023-03-15T03:54:51.230Z,0.00
2023-03-15T03:55:51.227Z,0.00
2023-03-15T03:56:51.210Z,0.00
2023-03-15T03:57:51.320Z,0.00
2023-03-15T03:58:51.187Z,0.00
2023-03-15T03:59:51.173Z,0.00
2023-03-15T04:00:51.160Z,0.00
2023-03-15T04:01:51.142Z,0.00
2023-03-15T04:02:51.162Z,0.00
2023-03-15T04:03:51.136Z,0.00
2023-03-15T04:04:51.160Z,0.00
2023-03-15T04:05:51.088Z,0.00
2023-03-15T04:06:52.025Z,0.00
2023-03-15T04:07:51.066Z,0.00
2023-03-15T04:08:51.045Z,0.00
2023-03-15T04:09:51.074Z,0.00
2023-03-15T04:10:51.025Z,0.00
2023-03-15T04:11:51.017Z,0.00
2023-03-15T04:12:50.999Z,0.00
2023-03-15T04:13:50.994Z,0.00
2023-03-15T04:14:50.968Z,0.00
2023-03-15T04:15:51.067Z,0.00
2023-03-15T04:16:50.949Z,0.00
2023-03-15T04:17:50.937Z,0.00
2023-03-15T04:18:50.919Z,0.00
2023-03-15T04:19:50.908Z,0.00
2023-03-15T04:20:51.048Z,0.00
2023-03-15T04:21:50.950Z,0.00
2023-03-15T04:22:50.863Z,0.00
2023-03-15T04:23:50.859Z,0.00
2023-03-15T04:24:50.844Z,0.00
2023-03-15T04:25:50.840Z,0.00
2023-03-15T04:26:50.812Z,0.00
2023-03-15T04:27:50.825Z,0.00
2023-03-15T04:28:51.744Z,0.00
2023-03-15T04:29:50.786Z,0.00
2023-03-15T04:30:50.777Z,0.00
2023-03-15T04:31:51.709Z,0.00
2023-03-15T04:32:50.789Z,0.00
2023-03-15T04:33:50.750Z,0.00
2023-03-15T04:34:50.729Z,0.00
2023-03-15T04:35:50.744Z,0.00
2023-03-15T04:36:51.655Z,0.00
2023-03-15T04:37:50.793Z,0.00
2023-03-15T04:38:50.676Z,0.00
2023-03-15T04:39:50.767Z,0.00
2023-03-15T04:40:51.604Z,0.00
2023-03-15T04:41:51.589Z,0.00
2023-03-15T04:42:50.625Z,0.00
2023-03-15T04:43:51.559Z,0.00
2023-03-15T04:44:50.599Z,0.00
2023-03-15T04:45:51.603Z,0.00
2023-03-15T04:46:50.636Z,0.00
2023-03-15T04:47:50.571Z,0.00
2023-03-15T04:48:51.500Z,0.00
2023-03-15T04:49:51.480Z,0.00
2023-03-15T04:50:50.527Z,0.00
2023-03-15T04:51:50.531Z,0.00
2023-03-15T04:52:50.500Z,0.00
2023-03-15T04:53:50.473Z,0.00
2023-03-15T04:54:50.534Z,0.00
2023-03-15T04:55:50.564Z,0.00
2023-03-15T04:56:50.444Z,0.00
2023-03-15T04:57:50.606Z,0.00
2023-03-15T04:58:50.419Z,0.00
2023-03-15T04:59:50.397Z,0.00
2023-03-15T05:00:50.432Z,0.00
2023-03-15T05:01:50.381Z,0.00
2023-03-15T05:02:50.374Z,0.00
2023-03-15T05:03:50.378Z,0.00
2023-03-15T05:04:50.337Z,0.00
2023-03-15T05:05:50.318Z,0.00
2023-03-15T05:06:50.307Z,0.00
2023-03-15T05:07:50.290Z,0.00
2023-03-15T05:08:50.296Z,0.00
2023-03-15T05:09:50.299Z,0.00
2023-03-15T05:10:51.210Z,0.00
2023-03-15T05:11:50.239Z,0.00
2023-03-15T05:12:50.231Z,0.00
2023-03-15T05:13:50.211Z,0.00
2023-03-15T05:14:53.755Z,0.00
2023-03-15T05:15:50.291Z,1.00
2023-03-15T05:16:51.140Z,1.00
2023-03-15T05:17:50.176Z,0.00
2023-03-15T05:18:50.152Z,0.00
2023-03-15T05:19:50.140Z,2.00
2023-03-15T05:20:50.126Z,2.00
2023-03-15T05:21:51.124Z,0.00
2023-03-15T05:22:50.108Z,4.00
2023-03-15T05:23:50.088Z,2.00
2023-03-15T05:24:50.093Z,1.00
2023-03-15T05:25:50.059Z,1.00
2023-03-15T05:26:50.065Z,2.00
2023-03-15T05:27:50.048Z,3.00
2023-03-15T05:28:50.030Z,7.00
2023-03-15T05:29:50.009Z,11.00
2023-03-15T05:30:49.999Z,4.00
2023-03-15T05:31:50.971Z,6.00
2023-03-15T05:32:50.004Z,18.00
2023-03-15T05:33:50.011Z,19.00
2023-03-15T05:34:49.939Z,15.00
2023-03-15T05:35:49.947Z,17.00
2023-03-15T05:36:49.920Z,30.00
2023-03-15T05:37:49.900Z,30.00
2023-03-15T05:38:49.892Z,30.00
2023-03-15T05:39:49.914Z,30.00
2023-03-15T05:40:49.871Z,33.00
2023-03-15T05:41:50.810Z,35.00
2023-03-15T05:42:49.842Z,47.00
2023-03-15T05:43:49.822Z,62.00
2023-03-15T05:44:49.816Z,59.00
2023-03-15T05:45:49.898Z,66.00
2023-03-15T05:46:49.792Z,77.00
2023-03-15T05:47:49.774Z,85.00
2023-03-15T05:48:49.763Z,88.00
2023-03-15T05:49:49.744Z,95.00
2023-03-15T05:50:49.739Z,107.00
2023-03-15T05:51:50.706Z,114.00
2023-03-15T05:52:49.706Z,124.00
2023-03-15T05:53:49.695Z,135.00
2023-03-15T05:54:49.684Z,147.00
2023-03-15T05:55:49.668Z,153.00
2023-03-15T05:56:49.668Z,169.00
2023-03-15T05:57:49.756Z,179.00
2023-03-15T05:58:49.646Z,187.00
2023-03-15T05:59:49.617Z,200.00
2023-03-15T06:00:49.606Z,210.00
2023-03-15T06:01:49.593Z,224.00
2023-03-15T06:02:49.579Z,230.00
2023-03-15T06:03:49.778Z,245.00
2023-03-15T06:04:49.563Z,270.00
2023-03-15T06:05:49.544Z,283.00
2023-03-15T06:06:49.529Z,293.00
2023-03-15T06:07:50.470Z,309.00
2023-03-15T06:08:49.516Z,325.00
2023-03-15T06:09:49.505Z,354.00
2023-03-15T06:10:49.475Z,369.00
2023-03-15T06:11:49.471Z,381.00
2023-03-15T06:12:49.451Z,410.00
2023-03-15T06:13:49.434Z,425.00
2023-03-15T06:14:49.423Z,445.00
2023-03-15T06:15:49.481Z,460.00
2023-03-15T06:16:50.417Z,493.00
2023-03-15T06:17:49.385Z,502.00
2023-03-15T06:18:49.372Z,531.00
2023-03-15T06:19:49.360Z,546.00
2023-03-15T06:20:49.350Z,578.00
2023-03-15T06:21:49.365Z,594.00
2023-03-15T06:22:49.326Z,609.00
2023-03-15T06:23:49.296Z,638.00
2023-03-15T06:24:49.295Z,673.00
2023-03-15T06:25:49.280Z,705.00
2023-03-15T06:26:49.273Z,748.00
2023-03-15T06:27:49.285Z,794.00
2023-03-15T06:28:49.245Z,835.00
2023-03-15T06:29:49.229Z,892.00
2023-03-15T06:30:49.264Z,945.00
2023-03-15T06:31:49.198Z,1017.00
2023-03-15T06:32:49.256Z,1087.00
2023-03-15T06:33:49.220Z,1222.00
2023-03-15T06:34:49.165Z,1393.00
2023-03-15T06:35:49.202Z,1588.00
2023-03-15T06:36:49.141Z,1777.00
2023-03-15T06:37:49.120Z,1977.00
2023-03-15T06:38:49.118Z,2227.00
2023-03-15T06:39:49.126Z,2291.00
2023-03-15T06:40:49.104Z,2268.00
2023-03-15T06:41:49.094Z,2457.00
2023-03-15T06:42:49.062Z,2517.00
2023-03-15T06:43:49.044Z,2574.00
2023-03-15T06:44:51.126Z,2639.00
2023-03-15T06:45:49.102Z,2826.00
2023-03-15T06:46:49.991Z,2913.00
2023-03-15T06:47:49.002Z,3112.00
2023-03-15T06:48:48.984Z,3248.00
2023-03-15T06:49:49.926Z,3387.00
2023-03-15T06:50:48.959Z,3515.00
2023-03-15T06:51:49.059Z,3610.00
2023-03-15T06:52:48.928Z,3550.00
2023-03-15T06:53:48.915Z,3169.00
2023-03-15T06:54:48.917Z,3356.00
2023-03-15T06:55:48.916Z,3756.00
2023-03-15T06:56:48.878Z,4014.00
2023-03-15T06:57:48.975Z,4207.00
2023-03-15T06:58:48.856Z,4328.00
2023-03-15T06:59:48.859Z,4264.00
2023-03-15T07:00:48.837Z,4613.00
2023-03-15T07:01:48.879Z,4594.00
2023-03-15T07:02:48.916Z,4792.00
2023-03-15T07:03:48.906Z,4052.00
2023-03-15T07:04:52.613Z,4016.00
2023-03-15T07:05:49.495Z,4086.00
2023-03-15T07:06:48.763Z,4207.00
2023-03-15T07:07:48.739Z,4279.00
2023-03-15T07:08:48.734Z,4321.00
2023-03-15T07:09:50.448Z,4359.00
2023-03-15T07:10:48.714Z,4341.00
2023-03-15T07:11:48.692Z,4368.00
2023-03-15T07:12:48.702Z,4409.00
2023-03-15T07:13:48.742Z,4496.00
2023-03-15T07:14:48.658Z,4526.00
2023-03-15T07:15:52.656Z,4589.00
2023-03-15T07:16:50.361Z,4640.00
2023-03-15T07:17:48.623Z,4689.00
2023-03-15T07:18:48.606Z,4708.00
2023-03-15T07:19:56.215Z,4774.00
2023-03-15T07:20:49.622Z,4768.00
2023-03-15T07:21:48.582Z,4711.00
2023-03-15T07:22:50.265Z,4855.00
2023-03-15T07:23:48.544Z,4866.00
2023-03-15T07:24:48.536Z,4840.00
2023-03-15T07:25:54.939Z,4879.00
2023-03-15T07:26:49.548Z,4985.00
2023-03-15T07:27:48.488Z,5009.00
2023-03-15T07:28:48.485Z,5036.00
2023-03-15T07:29:48.459Z,5040.00
2023-03-15T07:30:48.461Z,5065.00
2023-03-15T07:31:48.444Z,5099.00
2023-03-15T07:32:48.589Z,5153.00
2023-03-15T07:33:48.402Z,5209.00
2023-03-15T07:34:48.392Z,5213.00
2023-03-15T07:35:49.370Z,5210.00
2023-03-15T07:36:49.322Z,5220.00
2023-03-15T07:37:48.495Z,5306.00
2023-03-15T07:38:49.413Z,5287.00
2023-03-15T07:39:48.362Z,5282.00
2023-03-15T07:40:48.315Z,5281.00
2023-03-15T07:41:48.307Z,5355.00
2023-03-15T07:42:48.983Z,5377.00
2023-03-15T07:43:48.301Z,5361.00
2023-03-15T07:44:48.344Z,4896.00
2023-03-15T07:45:48.242Z,4468.00
2023-03-15T07:46:48.258Z,5096.00
2023-03-15T07:47:48.230Z,5438.00
2023-03-15T07:48:48.209Z,5509.00
2023-03-15T07:49:48.197Z,5457.00
2023-03-15T07:50:48.195Z,5538.00
2023-03-15T07:51:48.424Z,5380.00
2023-03-15T07:52:48.155Z,5077.00
2023-03-15T07:53:48.145Z,4649.00
2023-03-15T07:54:48.138Z,4613.00
2023-03-15T07:55:48.120Z,4754.00
2023-03-15T07:56:48.143Z,4726.00
2023-03-15T07:57:50.326Z,4598.00
2023-03-15T07:58:48.080Z,4762.00
2023-03-15T07:59:48.072Z,5098.00
2023-03-15T08:00:49.010Z,5540.00
2023-03-15T08:01:48.062Z,5610.00
2023-03-15T08:02:48.131Z,5608.00
2023-03-15T08:03:48.018Z,5736.00
2023-03-15T08:04:48.014Z,5677.00
2023-03-15T08:05:47.982Z,5595.00
2023-03-15T08:06:47.977Z,5771.00
2023-03-15T08:07:47.961Z,5729.00
2023-03-15T08:08:47.992Z,5665.00
2023-03-15T08:09:47.942Z,5657.00
2023-03-15T08:10:47.960Z,5685.00
2023-03-15T08:11:48.080Z,5718.00
2023-03-15T08:12:47.902Z,5692.00
2023-03-15T08:13:47.894Z,5734.00
2023-03-15T08:14:47.914Z,5716.00
2023-03-15T08:15:47.872Z,5704.00
2023-03-15T08:16:47.895Z,5673.00
2023-03-15T08:17:47.853Z,5682.00
2023-03-15T08:18:47.834Z,5668.00
2023-03-15T08:19:47.837Z,5637.00
2023-03-15T08:20:48.788Z,5605.00
2023-03-15T08:21:47.782Z,5566.00
2023-03-15T08:22:47.796Z,5593.00
2023-03-15T08:23:47.760Z,5632.00
2023-03-15T08:24:47.748Z,5637.00
2023-03-15T08:25:47.753Z,5619.00
2023-03-15T08:26:47.851Z,5606.00
2023-03-15T08:27:47.702Z,5570.00
2023-03-15T08:28:47.713Z,5559.00
2023-03-15T08:29:47.675Z,5580.00
2023-03-15T08:30:47.676Z,5582.00
2023-03-15T08:31:47.744Z,5546.00
2023-03-15T08:32:48.366Z,5504.00
2023-03-15T08:33:47.885Z,5500.00
2023-03-15T08:34:47.628Z,5423.00
2023-03-15T08:35:47.647Z,5408.00
2023-03-15T08:36:48.352Z,5391.00
2023-03-15T08:37:47.614Z,5374.00
2023-03-15T08:38:48.665Z,5339.00
2023-03-15T08:39:48.517Z,5314.00
2023-03-15T08:40:47.638Z,5312.00
2023-03-15T08:41:47.708Z,5347.00
2023-03-15T08:42:47.516Z,5479.00
2023-03-15T08:43:47.581Z,5539.00
2023-03-15T08:44:47.877Z,5282.00
2023-03-15T08:46:00.303Z,5306.00
2023-03-15T08:46:48.490Z,5165.00
2023-03-15T08:47:47.488Z,5183.00
2023-03-15T08:48:47.578Z,5154.00
2023-03-15T08:49:47.641Z,5064.00
2023-03-15T08:50:47.720Z,5002.00
2023-03-15T08:51:47.397Z,5001.00
2023-03-15T08:52:47.394Z,5085.00
2023-03-15T08:53:47.372Z,5003.00
2023-03-15T08:54:47.371Z,4931.00
2023-03-15T08:55:47.471Z,5858.00
2023-03-15T08:56:47.377Z,18484.00
2023-03-15T08:57:47.406Z,24458.00
2023-03-15T08:58:47.307Z,11045.00
2023-03-15T08:59:47.292Z,4946.00
2023-03-15T09:00:47.281Z,4617.00
2023-03-15T09:01:47.354Z,4662.00
2023-03-15T09:02:48.241Z,4584.00
2023-03-15T09:03:47.256Z,4539.00
2023-03-15T09:04:47.310Z,4646.00
2023-03-15T09:05:47.225Z,4206.00
2023-03-15T09:06:47.195Z,2748.00
2023-03-15T09:07:47.228Z,3338.00
2023-03-15T09:08:47.220Z,4060.00
2023-03-15T09:09:47.164Z,4458.00
2023-03-15T09:10:47.147Z,4514.00
2023-03-15T09:11:47.137Z,4633.00
2023-03-15T09:12:47.126Z,4510.00
2023-03-15T09:13:47.119Z,4295.00
2023-03-15T09:14:47.128Z,4028.00
2023-03-15T09:15:47.092Z,3983.00
2023-03-15T09:16:47.141Z,3906.00
2023-03-15T09:17:47.153Z,3904.00
2023-03-15T09:18:47.057Z,3875.00
2023-03-15T09:19:47.030Z,3829.00
2023-03-15T09:20:47.064Z,3820.00
2023-03-15T09:21:47.021Z,3796.00
2023-03-15T09:22:47.007Z,3748.00
2023-03-15T09:23:47.263Z,3834.00
2023-03-15T09:24:46.966Z,3813.00
2023-03-15T09:25:47.207Z,3015.00
2023-03-15T09:26:47.920Z,3884.00
2023-03-15T09:27:47.888Z,3697.00
2023-03-15T09:28:46.930Z,3719.00
2023-03-15T09:29:46.920Z,3924.00
2023-03-15T09:30:46.926Z,3862.00
2023-03-15T09:31:46.890Z,3868.00
2023-03-15T09:32:46.947Z,3567.00
2023-03-15T09:33:46.885Z,2588.00
2023-03-15T09:34:46.844Z,3801.00
2023-03-15T09:35:46.875Z,4752.00
2023-03-15T09:36:48.778Z,4891.00
2023-03-15T09:37:46.819Z,4949.00
2023-03-15T09:38:46.827Z,4886.00
2023-03-15T09:39:47.749Z,4775.00
2023-03-15T09:40:46.771Z,6517.00
2023-03-15T09:41:46.760Z,5841.00
2023-03-15T09:42:46.765Z,4600.00
2023-03-15T09:43:46.745Z,3052.00
2023-03-15T09:44:46.830Z,2625.00
2023-03-15T09:45:47.660Z,3127.00
2023-03-15T09:46:47.729Z,3352.00
2023-03-15T09:47:46.730Z,3207.00
2023-03-15T09:48:46.675Z,2884.00
2023-03-15T09:49:46.663Z,2834.00
2023-03-15T09:50:46.674Z,2799.00
2023-03-15T09:51:46.654Z,2772.00
2023-03-15T09:52:46.617Z,2419.00
2023-03-15T09:53:47.576Z,2009.00
2023-03-15T09:54:46.610Z,2230.00
2023-03-15T09:55:46.648Z,2622.00
2023-03-15T09:56:46.578Z,3999.00
2023-03-15T09:57:46.558Z,4023.00
2023-03-15T09:58:46.569Z,3971.00
2023-03-15T09:59:46.530Z,3289.00
2023-03-15T10:00:46.510Z,2791.00
2023-03-15T10:01:46.532Z,3012.00
2023-03-15T10:02:46.501Z,3127.00
2023-03-15T10:03:46.590Z,2739.00
2023-03-15T10:04:46.462Z,1848.00
2023-03-15T10:05:46.448Z,2118.00
2023-03-15T10:06:46.434Z,1931.00
2023-03-15T10:07:46.436Z,2227.00
2023-03-15T10:08:46.478Z,2062.00
2023-03-15T10:09:46.409Z,2240.00
2023-03-15T10:10:46.384Z,2255.00
2023-03-15T10:11:46.377Z,2213.00
2023-03-15T10:12:46.366Z,2282.00
2023-03-15T10:13:46.643Z,2331.00
2023-03-15T10:14:46.368Z,3047.00
2023-03-15T10:15:46.373Z,3242.00
2023-03-15T10:16:46.307Z,2665.00
2023-03-15T10:17:46.300Z,2361.00
2023-03-15T10:18:46.290Z,2028.00
2023-03-15T10:19:46.283Z,2906.00
2023-03-15T10:20:46.297Z,3587.00
2023-03-15T10:21:46.371Z,4682.00
2023-03-15T10:22:46.234Z,5084.00
2023-03-15T10:23:46.223Z,4549.00
2023-03-15T10:24:46.214Z,4660.00
2023-03-15T10:25:46.215Z,4425.00
2023-03-15T10:27:46.178Z,4435.00
2023-03-15T10:28:46.161Z,4256.00
2023-03-15T10:29:46.174Z,4059.00
2023-03-15T10:30:46.398Z,4232.00
2023-03-15T10:31:46.735Z,3973.00
2023-03-15T10:32:46.195Z,4490.00
2023-03-15T10:33:46.091Z,4083.00
2023-03-15T10:34:47.824Z,3591.00
2023-03-15T10:35:46.323Z,4136.00
2023-03-15T10:36:46.056Z,4152.00
2023-03-15T10:37:46.035Z,3211.00
2023-03-15T10:38:46.630Z,2461.00
2023-03-15T10:39:46.010Z,2231.00
2023-03-15T10:40:45.996Z,3016.00
2023-03-15T10:41:45.994Z,3673.00
2023-03-15T10:42:46.057Z,3173.00
2023-03-15T10:43:45.954Z,3116.00
2023-03-15T10:44:45.955Z,3451.00
2023-03-15T10:45:45.925Z,2572.00
2023-03-15T10:46:45.935Z,2235.00
2023-03-15T10:47:57.584Z,2468.00
2023-03-15T10:48:46.901Z,2486.00
2023-03-15T10:49:45.886Z,2755.00
2023-03-15T10:50:45.896Z,2955.00
2023-03-15T10:51:45.862Z,3040.00
2023-03-15T10:52:46.789Z,2884.00
2023-03-15T10:53:46.777Z,2481.00
2023-03-15T10:54:46.453Z,2492.00
2023-03-15T10:55:46.760Z,3120.00
2023-03-15T10:56:45.817Z,3786.00
2023-03-15T10:57:45.777Z,3716.00
2023-03-15T10:58:46.655Z,3807.00
2023-03-15T10:59:45.746Z,3728.00
2023-03-15T11:00:46.371Z,3992.00
2023-03-15T11:01:45.870Z,3972.00
2023-03-15T11:02:45.851Z,3519.00
2023-03-15T11:03:45.702Z,3113.00
2023-03-15T11:04:45.689Z,2427.00
2023-03-15T11:05:45.688Z,1962.00
2023-03-15T11:06:45.670Z,1877.00
2023-03-15T11:07:45.654Z,2580.00
2023-03-15T11:08:46.617Z,2786.00
2023-03-15T11:09:45.672Z,3226.00
2023-03-15T11:10:45.609Z,2874.00
2023-03-15T11:11:45.602Z,2651.00
2023-03-15T11:12:45.580Z,2734.00
2023-03-15T11:13:45.567Z,2725.00
2023-03-15T11:14:45.650Z,2498.00
2023-03-15T11:15:45.539Z,2278.00
2023-03-15T11:16:45.528Z,2431.00
2023-03-15T11:17:45.538Z,2246.00
2023-03-15T11:18:45.511Z,2049.00
2023-03-15T11:19:45.981Z,2296.00
2023-03-15T11:20:45.505Z,2308.00
2023-03-15T11:21:45.471Z,2585.00
2023-03-15T11:22:45.553Z,2622.00
2023-03-15T11:23:45.441Z,2750.00
2023-03-15T11:24:45.474Z,2765.00
2023-03-15T11:25:45.430Z,2489.00
2023-03-15T11:26:45.441Z,2273.00
2023-03-15T11:27:45.401Z,2485.00
2023-03-15T11:28:46.338Z,2810.00
2023-03-15T11:29:45.361Z,2918.00
2023-03-15T11:30:47.276Z,3462.00
2023-03-15T11:31:45.425Z,3772.00
2023-03-15T11:32:45.545Z,3661.00
2023-03-15T11:33:45.351Z,3667.00
2023-03-15T11:34:45.316Z,3215.00
2023-03-15T11:35:45.337Z,2808.00
2023-03-15T11:36:46.253Z,2492.00
2023-03-15T11:37:45.327Z,2796.00
2023-03-15T11:38:45.912Z,3167.00
2023-03-15T11:39:45.821Z,3766.00
2023-03-15T11:40:45.803Z,4312.00
2023-03-15T11:41:45.214Z,4838.00
2023-03-15T11:42:45.196Z,4808.00
2023-03-15T11:43:45.196Z,4973.00
2023-03-15T11:44:45.197Z,4602.00
2023-03-15T11:45:45.190Z,3999.00
2023-03-15T11:46:45.146Z,3910.00
2023-03-15T11:47:45.137Z,3640.00
2023-03-15T11:48:45.127Z,3282.00
2023-03-15T11:49:45.106Z,3391.00
2023-03-15T11:50:45.376Z,3371.00
2023-03-15T11:51:45.374Z,3208.00
2023-03-15T11:52:46.034Z,2864.00
2023-03-15T11:53:45.059Z,2867.00
2023-03-15T11:54:45.051Z,2915.00
2023-03-15T11:55:45.028Z,2596.00
2023-03-15T11:56:45.039Z,2251.00
2023-03-15T11:57:45.010Z,2239.00
2023-03-15T11:58:45.945Z,2107.00
2023-03-15T11:59:45.014Z,2029.00
2023-03-15T12:00:44.970Z,2043.00
2023-03-15T12:01:44.962Z,2093.00
2023-03-15T12:02:45.053Z,2389.00
2023-03-15T12:03:45.245Z,2931.00
2023-03-15T12:04:44.904Z,3332.00
2023-03-15T12:05:44.902Z,3611.00
2023-03-15T12:06:44.908Z,3987.00
2023-03-15T12:07:44.883Z,4140.00
2023-03-15T12:08:44.894Z,4120.00
2023-03-15T12:09:44.858Z,3787.00
2023-03-15T12:10:44.846Z,3299.00
2023-03-15T12:11:44.835Z,2692.00
2023-03-15T12:12:44.813Z,2261.00
2023-03-15T12:13:44.908Z,2102.00
2023-03-15T12:14:44.898Z,2032.00
2023-03-15T12:15:44.787Z,1938.00
2023-03-15T12:16:44.817Z,1830.00
2023-03-15T12:17:44.755Z,1815.00
2023-03-15T12:18:44.745Z,1888.00
2023-03-15T12:19:44.988Z,2301.00
2023-03-15T12:20:44.982Z,2590.00
2023-03-15T12:21:44.703Z,2747.00
2023-03-15T12:22:44.704Z,2829.00
2023-03-15T12:23:45.055Z,2920.00
2023-03-15T12:24:44.660Z,2960.00
2023-03-15T12:25:54.347Z,2945.00
2023-03-15T12:26:45.935Z,2991.00
2023-03-15T12:27:44.623Z,2895.00
2023-03-15T12:28:44.627Z,2751.00
2023-03-15T12:29:45.734Z,2971.00
2023-03-15T12:30:44.791Z,3357.00
2023-03-15T12:31:44.847Z,3527.00
2023-03-15T12:32:44.691Z,3615.00
2023-03-15T12:33:44.546Z,3952.00
2023-03-15T12:34:44.686Z,3892.00
2023-03-15T12:35:44.551Z,3555.00
2023-03-15T12:36:44.496Z,3136.00
2023-03-15T12:37:44.501Z,2787.00
2023-03-15T12:38:44.494Z,2192.00
2023-03-15T12:39:44.493Z,1891.00